sensor_id;sensor_type;location;lat;lon;timestamp;pressure;altitude;pressure_sealevel;temperature;humidity
61384;BME280;63511;49.346;8.798;2022-11-06T00:00:18;100684.31;;;7.90;78.39
61384;BME280;63511;49.346;8.798;2022-11-06T00:02:46;100695.13;;;7.99;78.68
61384;BME280;63511;49.346;8.798;2022-11-06T00:05:12;100695.09;;;7.68;79.60
61384;BME280;63511;49.346;8.798;2022-11-06T00:07:58;100694.63;;;7.93;78.30
61384;BME280;63511;49.346;8.798;2022-11-06T00:10:24;100686.72;;;8.08;78.67
61384;BME280;63511;49.346;8.798;2022-11-06T00:12:49;100687.59;;;8.19;78.10
61384;BME280;63511;49.346;8.798;2022-11-06T00:15:15;100682.31;;;8.26;78.19
61384;BME280;63511;49.346;8.798;2022-11-06T00:17:40;100686.72;;;8.29;78.38
61384;BME280;63511;49.346;8.798;2022-11-06T00:20:08;100684.09;;;8.17;78.51
61384;BME280;63511;49.346;8.798;2022-11-06T00:22:34;100685.44;;;8.03;78.91
61384;BME280;63511;49.346;8.798;2022-11-06T00:25:01;100686.09;;;7.91;79.26
61384;BME280;63511;49.346;8.798;2022-11-06T00:27:27;100691.38;;;7.94;79.46
61384;BME280;63511;49.346;8.798;2022-11-06T00:29:53;100681.94;;;7.91;80.17
61384;BME280;63511;49.346;8.798;2022-11-06T00:32:18;100683.81;;;7.94;80.17
61384;BME280;63511;49.346;8.798;2022-11-06T00:34:44;100688.19;;;7.66;80.33
61384;BME280;63511;49.346;8.798;2022-11-06T00:37:11;100672.69;;;7.51;80.10
61384;BME280;63511;49.346;8.798;2022-11-06T00:39:37;100685.03;;;7.68;79.98
61384;BME280;63511;49.346;8.798;2022-11-06T00:42:02;100675.13;;;7.70;80.03
61384;BME280;63511;49.346;8.798;2022-11-06T00:44:30;100676.41;;;7.85;79.60
61384;BME280;63511;49.346;8.798;2022-11-06T00:46:55;100680.56;;;7.95;78.93
61384;BME280;63511;49.346;8.798;2022-11-06T00:49:21;100676.78;;;8.00;79.08
61384;BME280;63511;49.346;8.798;2022-11-06T00:51:51;100685.97;;;7.99;78.95
61384;BME280;63511;49.346;8.798;2022-11-06T00:54:16;100680.53;;;7.75;78.79
61384;BME280;63511;49.346;8.798;2022-11-06T00:56:42;100675.28;;;7.82;78.54
61384;BME280;63511;49.346;8.798;2022-11-06T00:59:11;100682.69;;;7.80;78.99
61384;BME280;63511;49.346;8.798;2022-11-06T01:01:39;100679.63;;;7.64;79.53
61384;BME280;63511;49.346;8.798;2022-11-06T01:06:37;100673.69;;;7.43;81.10
61384;BME280;63511;49.346;8.798;2022-11-06T01:09:08;100669.69;;;7.45;80.89
61384;BME280;63511;49.346;8.798;2022-11-06T01:14:00;100678.25;;;7.78;80.91
61384;BME280;63511;49.346;8.798;2022-11-06T01:16:29;100688.59;;;7.91;80.84
61384;BME280;63511;49.346;8.798;2022-11-06T01:18:55;100691.38;;;8.04;80.04
61384;BME280;63511;49.346;8.798;2022-11-06T01:21:28;100687.59;;;8.09;79.70
61384;BME280;63511;49.346;8.798;2022-11-06T01:23:57;100685.06;;;7.99;79.39
61384;BME280;63511;49.346;8.798;2022-11-06T01:26:23;100673.13;;;7.76;79.91
61384;BME280;63511;49.346;8.798;2022-11-06T01:28:49;100670.22;;;7.61;81.20
61384;BME280;63511;49.346;8.798;2022-11-06T01:31:19;100671.34;;;7.65;80.80
61384;BME280;63511;49.346;8.798;2022-11-06T01:33:45;100670.47;;;7.75;80.74
61384;BME280;63511;49.346;8.798;2022-11-06T01:36:16;100668.34;;;7.69;80.96
61384;BME280;63511;49.346;8.798;2022-11-06T01:38:45;100663.47;;;7.81;80.08
61384;BME280;63511;49.346;8.798;2022-11-06T01:41:25;100662.44;;;7.68;80.56
61384;BME280;63511;49.346;8.798;2022-11-06T01:43:59;100661.94;;;7.83;80.75
61384;BME280;63511;49.346;8.798;2022-11-06T01:46:28;100662.69;;;7.72;81.05
61384;BME280;63511;49.346;8.798;2022-11-06T01:49:07;100656.16;;;7.94;80.84
61384;BME280;63511;49.346;8.798;2022-11-06T01:51:39;100643.47;;;8.02;81.27
61384;BME280;63511;49.346;8.798;2022-11-06T01:54:07;100643.09;;;8.08;80.60
61384;BME280;63511;49.346;8.798;2022-11-06T01:56:35;100648.63;;;8.04;80.60
61384;BME280;63511;49.346;8.798;2022-11-06T01:59:02;100645.84;;;8.11;80.08
61384;BME280;63511;49.346;8.798;2022-11-06T02:01:28;100636.53;;;8.20;80.31
61384;BME280;63511;49.346;8.798;2022-11-06T02:04:21;100635.28;;;8.15;80.19
61384;BME280;63511;49.346;8.798;2022-11-06T02:06:47;100628.78;;;7.97;81.03
61384;BME280;63511;49.346;8.798;2022-11-06T02:09:13;100633.16;;;7.79;81.18
61384;BME280;63511;49.346;8.798;2022-11-06T02:15:18;100608.25;;;7.72;81.61
61384;BME280;63511;49.346;8.798;2022-11-06T02:17:55;100590.91;;;7.85;80.56
61384;BME280;63511;49.346;8.798;2022-11-06T02:20:36;100596.56;;;7.83;80.86
61384;BME280;63511;49.346;8.798;2022-11-06T02:23:21;100593.06;;;7.60;81.29
61384;BME280;63511;49.346;8.798;2022-11-06T02:28:28;100596.03;;;7.46;81.38
61384;BME280;63511;49.346;8.798;2022-11-06T02:31:01;100604.88;;;7.02;81.39
61384;BME280;63511;49.346;8.798;2022-11-06T02:33:32;100611.88;;;6.96;82.50
61384;BME280;63511;49.346;8.798;2022-11-06T02:36:05;100606.34;;;6.61;82.79
61384;BME280;63511;49.346;8.798;2022-11-06T02:38:36;100597.03;;;6.89;82.53
61384;BME280;63511;49.346;8.798;2022-11-06T02:41:05;100586.28;;;7.00;82.74
61384;BME280;63511;49.346;8.798;2022-11-06T02:43:39;100581.38;;;7.61;80.66
61384;BME280;63511;49.346;8.798;2022-11-06T02:46:13;100588.00;;;7.20;81.55
61384;BME280;63511;49.346;8.798;2022-11-06T02:48:45;100591.59;;;7.03;81.67
61384;BME280;63511;49.346;8.798;2022-11-06T02:51:18;100581.78;;;7.06;81.55
61384;BME280;63511;49.346;8.798;2022-11-06T02:53:46;100577.19;;;7.31;82.00
61384;BME280;63511;49.346;8.798;2022-11-06T02:56:27;100582.63;;;7.46;80.39
61384;BME280;63511;49.346;8.798;2022-11-06T02:58:58;100573.94;;;7.52;81.35
61384;BME280;63511;49.346;8.798;2022-11-06T03:01:34;100571.41;;;7.32;80.11
61384;BME280;63511;49.346;8.798;2022-11-06T03:04:11;100578.06;;;7.32;80.63
61384;BME280;63511;49.346;8.798;2022-11-06T03:07:04;100583.97;;;7.32;80.82
61384;BME280;63511;49.346;8.798;2022-11-06T03:09:31;100576.19;;;7.29;81.64
61384;BME280;63511;49.346;8.798;2022-11-06T03:14:53;100590.38;;;7.29;80.50
61384;BME280;63511;49.346;8.798;2022-11-06T03:17:23;100590.25;;;7.27;80.98
61384;BME280;63511;49.346;8.798;2022-11-06T03:20:01;100579.19;;;7.15;80.45
61384;BME280;63511;49.346;8.798;2022-11-06T03:22:34;100584.34;;;7.26;80.60
61384;BME280;63511;49.346;8.798;2022-11-06T03:25:13;100579.97;;;7.24;80.20
61384;BME280;63511;49.346;8.798;2022-11-06T03:28:09;100585.50;;;7.30;79.91
61384;BME280;63511;49.346;8.798;2022-11-06T03:30:42;100567.84;;;7.10;79.55
61384;BME280;63511;49.346;8.798;2022-11-06T03:33:19;100572.03;;;6.42;81.44
61384;BME280;63511;49.346;8.798;2022-11-06T03:35:54;100574.56;;;6.52;82.24
61384;BME280;63511;49.346;8.798;2022-11-06T03:38:36;100567.78;;;6.79;81.65
61384;BME280;63511;49.346;8.798;2022-11-06T03:41:19;100576.06;;;6.78;81.62
61384;BME280;63511;49.346;8.798;2022-11-06T03:43:48;100576.50;;;6.93;81.69
61384;BME280;63511;49.346;8.798;2022-11-06T03:46:18;100572.50;;;7.05;81.74
61384;BME280;63511;49.346;8.798;2022-11-06T03:48:49;100572.63;;;7.07;82.25
61384;BME280;63511;49.346;8.798;2022-11-06T03:51:30;100570.84;;;6.96;81.35
61384;BME280;63511;49.346;8.798;2022-11-06T03:54:14;100572.31;;;6.83;81.47
61384;BME280;63511;49.346;8.798;2022-11-06T03:56:53;100575.19;;;6.78;81.47
61384;BME280;63511;49.346;8.798;2022-11-06T03:59:21;100576.16;;;6.41;82.22
61384;BME280;63511;49.346;8.798;2022-11-06T04:01:52;100553.53;;;6.31;82.53
61384;BME280;63511;49.346;8.798;2022-11-06T04:07:00;100546.25;;;6.05;83.52
61384;BME280;63511;49.346;8.798;2022-11-06T04:09:34;100548.13;;;6.08;84.13
61384;BME280;63511;49.346;8.798;2022-11-06T04:12:23;100544.97;;;5.73;84.30
61384;BME280;63511;49.346;8.798;2022-11-06T04:15:09;100552.75;;;6.03;83.65
61384;BME280;63511;49.346;8.798;2022-11-06T04:17:37;100540.09;;;6.30;83.81
61384;BME280;63511;49.346;8.798;2022-11-06T04:20:07;100549.28;;;6.69;81.87
61384;BME280;63511;49.346;8.798;2022-11-06T04:23:00;100534.50;;;6.72;80.27
61384;BME280;63511;49.346;8.798;2022-11-06T04:25:50;100541.72;;;6.30;82.79
61384;BME280;63511;49.346;8.798;2022-11-06T04:36:23;100533.56;;;6.51;80.28
61384;BME280;63511;49.346;8.798;2022-11-06T04:39:16;100526.03;;;6.51;80.72
61384;BME280;63511;49.346;8.798;2022-11-06T04:44:35;100514.91;;;6.58;80.98
61384;BME280;63511;49.346;8.798;2022-11-06T04:47:07;100513.16;;;6.67;81.06
61384;BME280;63511;49.346;8.798;2022-11-06T04:49:37;100523.16;;;6.57;80.99
61384;BME280;63511;49.346;8.798;2022-11-06T04:52:06;100537.56;;;6.49;83.47
61384;BME280;63511;49.346;8.798;2022-11-06T04:54:33;100540.31;;;6.42;83.47
61384;BME280;63511;49.346;8.798;2022-11-06T04:57:00;100548.13;;;6.55;82.17
61384;BME280;63511;49.346;8.798;2022-11-06T04:59:25;100540.66;;;6.75;82.16
61384;BME280;63511;49.346;8.798;2022-11-06T05:01:51;100546.44;;;6.84;80.57
61384;BME280;63511;49.346;8.798;2022-11-06T05:04:20;100553.00;;;6.82;80.46
61384;BME280;63511;49.346;8.798;2022-11-06T05:06:48;100540.31;;;6.81;81.66
61384;BME280;63511;49.346;8.798;2022-11-06T05:09:13;100544.19;;;6.77;81.40
61384;BME280;63511;49.346;8.798;2022-11-06T05:11:38;100540.69;;;6.86;80.75
61384;BME280;63511;49.346;8.798;2022-11-06T05:14:04;100543.25;;;7.06;80.87
61384;BME280;63511;49.346;8.798;2022-11-06T05:16:31;100540.72;;;7.06;80.16
61384;BME280;63511;49.346;8.798;2022-11-06T05:18:57;100535.81;;;6.87;80.57
61384;BME280;63511;49.346;8.798;2022-11-06T05:21:24;100546.13;;;6.61;81.24
61384;BME280;63511;49.346;8.798;2022-11-06T05:24:08;100550.34;;;6.42;82.81
61384;BME280;63511;49.346;8.798;2022-11-06T05:26:36;100555.41;;;6.33;83.08
61384;BME280;63511;49.346;8.798;2022-11-06T05:29:03;100551.31;;;6.44;81.85
61384;BME280;63511;49.346;8.798;2022-11-06T05:31:31;100541.72;;;6.30;82.10
61384;BME280;63511;49.346;8.798;2022-11-06T05:33:56;100542.44;;;6.19;83.25
61384;BME280;63511;49.346;8.798;2022-11-06T05:36:22;100547.06;;;5.95;83.87
61384;BME280;63511;49.346;8.798;2022-11-06T05:38:49;100542.34;;;5.71;83.87
61384;BME280;63511;49.346;8.798;2022-11-06T05:41:15;100541.19;;;5.86;84.12
61384;BME280;63511;49.346;8.798;2022-11-06T05:43:40;100531.59;;;6.10;83.54
61384;BME280;63511;49.346;8.798;2022-11-06T05:46:06;100525.25;;;6.42;82.38
61384;BME280;63511;49.346;8.798;2022-11-06T05:48:31;100525.88;;;6.50;81.39
61384;BME280;63511;49.346;8.798;2022-11-06T05:51:06;100529.50;;;6.43;81.73
61384;BME280;63511;49.346;8.798;2022-11-06T05:53:35;100529.22;;;5.92;83.63
61384;BME280;63511;49.346;8.798;2022-11-06T05:56:03;100529.91;;;6.00;84.12
61384;BME280;63511;49.346;8.798;2022-11-06T05:58:29;100526.78;;;6.50;83.39
61384;BME280;63511;49.346;8.798;2022-11-06T06:00:57;100529.91;;;6.48;83.23
61384;BME280;63511;49.346;8.798;2022-11-06T06:03:23;100505.16;;;6.81;82.62
61384;BME280;63511;49.346;8.798;2022-11-06T06:05:49;100495.78;;;6.89;83.06
61384;BME280;63511;49.346;8.798;2022-11-06T06:08:17;100488.50;;;7.02;82.71
61384;BME280;63511;49.346;8.798;2022-11-06T06:10:43;100489.06;;;6.69;83.24
61384;BME280;63511;49.346;8.798;2022-11-06T06:13:09;100499.28;;;6.42;84.13
61384;BME280;63511;49.346;8.798;2022-11-06T06:15:37;100492.38;;;6.88;83.67
61384;BME280;63511;49.346;8.798;2022-11-06T06:18:02;100494.63;;;6.36;84.59
61384;BME280;63511;49.346;8.798;2022-11-06T06:20:33;100503.69;;;6.15;85.37
61384;BME280;63511;49.346;8.798;2022-11-06T06:22:59;100500.69;;;6.58;85.40
61384;BME280;63511;49.346;8.798;2022-11-06T06:25:26;100497.03;;;6.94;84.54
61384;BME280;63511;49.346;8.798;2022-11-06T06:27:52;100496.78;;;7.11;83.27
61384;BME280;63511;49.346;8.798;2022-11-06T06:30:22;100492.56;;;7.20;82.70
61384;BME280;63511;49.346;8.798;2022-11-06T06:32:51;100484.50;;;7.24;82.43
61384;BME280;63511;49.346;8.798;2022-11-06T06:35:19;100485.50;;;7.26;82.95
61384;BME280;63511;49.346;8.798;2022-11-06T06:37:54;100480.47;;;7.16;82.93
61384;BME280;63511;49.346;8.798;2022-11-06T06:40:20;100468.81;;;7.16;83.14
61384;BME280;63511;49.346;8.798;2022-11-06T06:42:46;100462.66;;;7.23;83.31
61384;BME280;63511;49.346;8.798;2022-11-06T06:45:11;100455.75;;;7.41;83.73
61384;BME280;63511;49.346;8.798;2022-11-06T06:47:37;100449.44;;;7.66;82.64
61384;BME280;63511;49.346;8.798;2022-11-06T06:50:02;100450.66;;;7.81;82.28
61384;BME280;63511;49.346;8.798;2022-11-06T06:52:30;100456.34;;;7.48;82.13
61384;BME280;63511;49.346;8.798;2022-11-06T06:54:55;100450.31;;;7.46;82.36
61384;BME280;63511;49.346;8.798;2022-11-06T06:57:20;100432.88;;;7.28;83.41
61384;BME280;63511;49.346;8.798;2022-11-06T06:59:48;100435.91;;;7.13;84.45
61384;BME280;63511;49.346;8.798;2022-11-06T07:02:13;100436.81;;;7.04;85.35
61384;BME280;63511;49.346;8.798;2022-11-06T07:04:39;100433.16;;;7.41;84.41
61384;BME280;63511;49.346;8.798;2022-11-06T07:07:04;100418.78;;;7.60;83.73
61384;BME280;63511;49.346;8.798;2022-11-06T07:09:30;100411.00;;;7.47;83.67
61384;BME280;63511;49.346;8.798;2022-11-06T07:11:58;100407.78;;;6.97;84.42
61384;BME280;63511;49.346;8.798;2022-11-06T07:14:23;100409.66;;;6.90;85.64
61384;BME280;63511;49.346;8.798;2022-11-06T07:16:49;100413.69;;;6.88;85.92
61384;BME280;63511;49.346;8.798;2022-11-06T07:19:17;100411.41;;;6.80;86.82
61384;BME280;63511;49.346;8.798;2022-11-06T07:21:44;100403.13;;;6.81;86.71
61384;BME280;63511;49.346;8.798;2022-11-06T07:24:11;100401.25;;;6.79;87.57
61384;BME280;63511;49.346;8.798;2022-11-06T07:26:39;100402.13;;;6.90;85.97
61384;BME280;63511;49.346;8.798;2022-11-06T07:29:04;100397.38;;;7.03;85.92
61384;BME280;63511;49.346;8.798;2022-11-06T07:31:30;100399.88;;;7.13;85.22
61384;BME280;63511;49.346;8.798;2022-11-06T07:33:55;100387.50;;;7.56;85.00
61384;BME280;63511;49.346;8.798;2022-11-06T07:36:25;100381.25;;;7.31;84.21
61384;BME280;63511;49.346;8.798;2022-11-06T07:38:50;100370.97;;;7.38;83.51
61384;BME280;63511;49.346;8.798;2022-11-06T07:41:18;100366.31;;;7.33;84.07
61384;BME280;63511;49.346;8.798;2022-11-06T07:43:43;100359.97;;;7.58;84.23
61384;BME280;63511;49.346;8.798;2022-11-06T07:46:12;100358.13;;;7.87;83.33
61384;BME280;63511;49.346;8.798;2022-11-06T07:48:37;100369.84;;;7.77;83.15
61384;BME280;63511;49.346;8.798;2022-11-06T07:51:06;100376.44;;;7.96;82.32
61384;BME280;63511;49.346;8.798;2022-11-06T07:53:32;100378.06;;;7.64;82.32
61384;BME280;63511;49.346;8.798;2022-11-06T07:55:58;100374.84;;;7.45;83.82
61384;BME280;63511;49.346;8.798;2022-11-06T07:58:24;100368.44;;;7.80;84.10
61384;BME280;63511;49.346;8.798;2022-11-06T08:00:54;100363.47;;;8.24;82.35
61384;BME280;63511;49.346;8.798;2022-11-06T08:03:20;100372.31;;;8.40;81.71
61384;BME280;63511;49.346;8.798;2022-11-06T08:05:48;100377.53;;;8.53;81.36
61384;BME280;63511;49.346;8.798;2022-11-06T08:08:16;100372.78;;;8.46;81.13
61384;BME280;63511;49.346;8.798;2022-11-06T08:10:41;100368.06;;;8.29;81.03
61384;BME280;63511;49.346;8.798;2022-11-06T08:13:13;100369.34;;;8.24;81.73
61384;BME280;63511;49.346;8.798;2022-11-06T08:15:39;100375.72;;;8.09;81.77
61384;BME280;63511;49.346;8.798;2022-11-06T08:18:08;100387.09;;;8.69;81.94
61384;BME280;63511;49.346;8.798;2022-11-06T08:20:35;100385.94;;;8.87;81.19
61384;BME280;63511;49.346;8.798;2022-11-06T08:23:02;100378.34;;;9.09;80.62
61384;BME280;63511;49.346;8.798;2022-11-06T08:25:33;100377.03;;;9.14;79.80
61384;BME280;63511;49.346;8.798;2022-11-06T08:28:01;100383.28;;;8.74;79.96
61384;BME280;63511;49.346;8.798;2022-11-06T08:30:28;100381.16;;;8.90;79.31
61384;BME280;63511;49.346;8.798;2022-11-06T08:32:54;100388.66;;;9.35;80.05
61384;BME280;63511;49.346;8.798;2022-11-06T08:35:22;100404.88;;;9.16;79.71
61384;BME280;63511;49.346;8.798;2022-11-06T08:37:50;100403.16;;;8.93;79.79
61384;BME280;63511;49.346;8.798;2022-11-06T08:40:15;100415.53;;;8.90;80.36
61384;BME280;63511;49.346;8.798;2022-11-06T08:42:40;100414.03;;;9.04;80.24
61384;BME280;63511;49.346;8.798;2022-11-06T08:45:06;100402.94;;;9.02;80.97
61384;BME280;63511;49.346;8.798;2022-11-06T08:47:32;100406.28;;;8.79;81.03
61384;BME280;63511;49.346;8.798;2022-11-06T08:49:57;100399.91;;;8.72;83.17
61384;BME280;63511;49.346;8.798;2022-11-06T08:52:22;100404.66;;;8.79;81.31
61384;BME280;63511;49.346;8.798;2022-11-06T08:54:50;100392.44;;;8.95;80.17
61384;BME280;63511;49.346;8.798;2022-11-06T08:57:18;100393.00;;;9.03;81.00
61384;BME280;63511;49.346;8.798;2022-11-06T08:59:43;100389.13;;;8.85;81.67
61384;BME280;63511;49.346;8.798;2022-11-06T09:02:13;100392.13;;;9.03;81.00
61384;BME280;63511;49.346;8.798;2022-11-06T09:04:39;100382.25;;;8.94;80.39
61384;BME280;63511;49.346;8.798;2022-11-06T09:07:06;100380.34;;;9.36;79.85
61384;BME280;63511;49.346;8.798;2022-11-06T09:09:32;100368.84;;;9.17;80.49
61384;BME280;63511;49.346;8.798;2022-11-06T09:12:00;100357.75;;;9.38;80.91
61384;BME280;63511;49.346;8.798;2022-11-06T09:14:26;100350.31;;;9.63;80.07
61384;BME280;63511;49.346;8.798;2022-11-06T09:16:52;100345.72;;;9.34;80.88
61384;BME280;63511;49.346;8.798;2022-11-06T09:19:18;100344.94;;;9.35;81.29
61384;BME280;63511;49.346;8.798;2022-11-06T09:21:44;100347.25;;;9.67;81.42
61384;BME280;63511;49.346;8.798;2022-11-06T09:24:12;100339.22;;;9.84;80.77
61384;BME280;63511;49.346;8.798;2022-11-06T09:26:39;100329.81;;;10.06;79.69
61384;BME280;63511;49.346;8.798;2022-11-06T09:29:05;100313.47;;;10.25;79.22
61384;BME280;63511;49.346;8.798;2022-11-06T09:31:30;100321.06;;;10.01;79.77
61384;BME280;63511;49.346;8.798;2022-11-06T09:33:55;100312.69;;;10.50;77.33
61384;BME280;63511;49.346;8.798;2022-11-06T09:36:21;100305.84;;;10.74;78.20
61384;BME280;63511;49.346;8.798;2022-11-06T09:38:46;100306.25;;;10.67;78.17
61384;BME280;63511;49.346;8.798;2022-11-06T09:41:27;100297.25;;;10.46;78.50
61384;BME280;63511;49.346;8.798;2022-11-06T09:47:11;100284.16;;;11.02;77.55
61384;BME280;63511;49.346;8.798;2022-11-06T09:49:47;100282.38;;;11.01;76.72
61384;BME280;63511;49.346;8.798;2022-11-06T09:55:03;100260.03;;;11.07;75.48
61384;BME280;63511;49.346;8.798;2022-11-06T10:00:12;100247.25;;;11.59;75.43
61384;BME280;63511;49.346;8.798;2022-11-06T10:07:44;100232.19;;;12.16;74.51
61384;BME280;63511;49.346;8.798;2022-11-06T10:10:45;100232.91;;;12.28;74.24
61384;BME280;63511;49.346;8.798;2022-11-06T10:16:02;100224.78;;;12.33;71.88
61384;BME280;63511;49.346;8.798;2022-11-06T10:21:26;100200.69;;;12.40;71.66
61384;BME280;63511;49.346;8.798;2022-11-06T10:23:59;100200.06;;;12.15;72.01
61384;BME280;63511;49.346;8.798;2022-11-06T10:26:40;100197.91;;;12.35;72.67
61384;BME280;63511;49.346;8.798;2022-11-06T10:34:46;100177.03;;;12.40;71.80
61384;BME280;63511;49.346;8.798;2022-11-06T10:37:20;100169.53;;;12.56;73.30
61384;BME280;63511;49.346;8.798;2022-11-06T10:39:48;100159.47;;;12.28;72.63
61384;BME280;63511;49.346;8.798;2022-11-06T10:42:19;100147.09;;;12.47;72.26
61384;BME280;63511;49.346;8.798;2022-11-06T10:47:20;100134.88;;;12.86;72.28
61384;BME280;63511;49.346;8.798;2022-11-06T10:49:54;100129.19;;;12.90;70.57
61384;BME280;63511;49.346;8.798;2022-11-06T10:58:22;100119.00;;;13.04;71.15
61384;BME280;63511;49.346;8.798;2022-11-06T11:00:59;100114.88;;;13.21;70.13
61384;BME280;63511;49.346;8.798;2022-11-06T11:03:28;100116.47;;;13.04;70.23
61384;BME280;63511;49.346;8.798;2022-11-06T11:05:54;100116.69;;;12.93;70.03
61384;BME280;63511;49.346;8.798;2022-11-06T11:18:48;100099.31;;;13.47;70.13
61384;BME280;63511;49.346;8.798;2022-11-06T11:21:23;100087.75;;;13.52;69.32
61384;BME280;63511;49.346;8.798;2022-11-06T11:24:09;100087.34;;;13.12;69.20
61384;BME280;63511;49.346;8.798;2022-11-06T11:32:12;100071.75;;;13.53;69.18
61384;BME280;63511;49.346;8.798;2022-11-06T11:34:44;100065.97;;;13.40;68.26
61384;BME280;63511;49.346;8.798;2022-11-06T11:37:23;100060.66;;;13.35;68.05
61384;BME280;63511;49.346;8.798;2022-11-06T11:39:50;100059.56;;;13.14;70.05
61384;BME280;63511;49.346;8.798;2022-11-06T11:42:30;100049.28;;;12.96;69.19
61384;BME280;63511;49.346;8.798;2022-11-06T11:47:32;100051.88;;;13.29;68.13
61384;BME280;63511;49.346;8.798;2022-11-06T11:50:33;100043.78;;;13.19;68.22
61384;BME280;63511;49.346;8.798;2022-11-06T11:53:13;100035.88;;;13.63;68.45
61384;BME280;63511;49.346;8.798;2022-11-06T11:55:45;100030.66;;;13.60;68.01
61384;BME280;63511;49.346;8.798;2022-11-06T11:58:30;100019.31;;;13.70;67.63
61384;BME280;63511;49.346;8.798;2022-11-06T12:01:06;100005.44;;;13.30;67.39
61384;BME280;63511;49.346;8.798;2022-11-06T12:03:40;100000.50;;;13.33;68.32
61384;BME280;63511;49.346;8.798;2022-11-06T12:06:14;100002.66;;;13.41;68.09
61384;BME280;63511;49.346;8.798;2022-11-06T12:08:46;99998.69;;;13.46;68.29
61384;BME280;63511;49.346;8.798;2022-11-06T12:11:18;99988.06;;;13.71;67.35
61384;BME280;63511;49.346;8.798;2022-11-06T12:16:54;99989.25;;;13.28;68.17
61384;BME280;63511;49.346;8.798;2022-11-06T12:19:22;99981.38;;;13.73;67.90
61384;BME280;63511;49.346;8.798;2022-11-06T12:21:56;99975.47;;;13.90;66.17
61384;BME280;63511;49.346;8.798;2022-11-06T12:24:38;99964.66;;;14.12;65.78
61384;BME280;63511;49.346;8.798;2022-11-06T12:27:11;99965.00;;;14.20;66.49
61384;BME280;63511;49.346;8.798;2022-11-06T12:29:41;99959.50;;;14.11;64.96
61384;BME280;63511;49.346;8.798;2022-11-06T12:40:37;99944.88;;;14.60;64.23
61384;BME280;63511;49.346;8.798;2022-11-06T12:43:12;99947.81;;;14.69;64.11
61384;BME280;63511;49.346;8.798;2022-11-06T12:59:49;99918.00;;;14.65;64.57
61384;BME280;63511;49.346;8.798;2022-11-06T13:02:26;99912.06;;;15.04;63.28
61384;BME280;63511;49.346;8.798;2022-11-06T13:05:09;99911.81;;;14.79;63.66
61384;BME280;63511;49.346;8.798;2022-11-06T13:07:49;99902.59;;;14.62;62.59
61384;BME280;63511;49.346;8.798;2022-11-06T13:18:52;99891.09;;;14.70;64.01
61384;BME280;63511;49.346;8.798;2022-11-06T13:23:50;99895.91;;;14.83;64.06
61384;BME280;63511;49.346;8.798;2022-11-06T13:26:36;99895.13;;;14.65;64.57
61384;BME280;63511;49.346;8.798;2022-11-06T13:29:09;99880.16;;;15.11;63.42
61384;BME280;63511;49.346;8.798;2022-11-06T13:31:39;99874.53;;;15.18;63.12
61384;BME280;63511;49.346;8.798;2022-11-06T13:34:16;99875.16;;;15.33;62.76
61384;BME280;63511;49.346;8.798;2022-11-06T13:36:43;99871.28;;;15.01;62.77
61384;BME280;63511;49.346;8.798;2022-11-06T13:39:28;99870.25;;;14.98;63.41
61384;BME280;63511;49.346;8.798;2022-11-06T13:41:56;99872.88;;;14.99;63.42
61384;BME280;63511;49.346;8.798;2022-11-06T13:44:22;99867.84;;;15.01;63.64
61384;BME280;63511;49.346;8.798;2022-11-06T13:52:56;99856.47;;;15.32;63.50
61384;BME280;63511;49.346;8.798;2022-11-06T14:06:39;99838.44;;;14.67;65.23
61384;BME280;63511;49.346;8.798;2022-11-06T14:09:16;99841.88;;;14.49;65.59
61384;BME280;63511;49.346;8.798;2022-11-06T14:11:44;99835.53;;;14.58;66.15
61384;BME280;63511;49.346;8.798;2022-11-06T14:24:38;99825.13;;;13.78;67.48
61384;BME280;63511;49.346;8.798;2022-11-06T14:27:08;99835.72;;;14.24;67.08
61384;BME280;63511;49.346;8.798;2022-11-06T14:34:46;99824.91;;;14.48;66.74
61384;BME280;63511;49.346;8.798;2022-11-06T14:44:52;99821.22;;;14.41;66.74
61384;BME280;63511;49.346;8.798;2022-11-06T14:52:50;99820.34;;;14.60;65.42
61384;BME280;63511;49.346;8.798;2022-11-06T14:55:33;99818.56;;;14.38;65.93
61384;BME280;63511;49.346;8.798;2022-11-06T15:04:03;99821.47;;;14.47;67.01
61384;BME280;63511;49.346;8.798;2022-11-06T15:06:07;99822.66;;;14.17;67.93
61384;BME280;63511;49.346;8.798;2022-11-06T15:16:28;99808.09;;;13.76;71.32
61384;BME280;63511;49.346;8.798;2022-11-06T15:19:01;99816.28;;;13.70;71.18
61384;BME280;63511;49.346;8.798;2022-11-06T15:21:29;99819.41;;;13.65;71.56
61384;BME280;63511;49.346;8.798;2022-11-06T15:26:50;99808.06;;;13.21;73.07
61384;BME280;63511;49.346;8.798;2022-11-06T15:29:23;99801.50;;;13.08;73.32
61384;BME280;63511;49.346;8.798;2022-11-06T15:31:52;99798.91;;;12.91;74.22
61384;BME280;63511;49.346;8.798;2022-11-06T15:34:35;99813.34;;;12.92;73.88
61384;BME280;63511;49.346;8.798;2022-11-06T15:37:29;99816.91;;;12.95;73.78
61384;BME280;63511;49.346;8.798;2022-11-06T15:39:57;99822.53;;;12.90;74.92
61384;BME280;63511;49.346;8.798;2022-11-06T15:42:24;99823.88;;;12.99;74.39
61384;BME280;63511;49.346;8.798;2022-11-06T15:44:51;99818.31;;;12.90;74.19
61384;BME280;63511;49.346;8.798;2022-11-06T15:47:28;99815.00;;;12.91;74.85
61384;BME280;63511;49.346;8.798;2022-11-06T15:52:39;99802.63;;;12.63;74.92
61384;BME280;63511;49.346;8.798;2022-11-06T15:55:05;99802.41;;;12.59;75.58
61384;BME280;63511;49.346;8.798;2022-11-06T15:57:31;99797.00;;;12.69;74.86
61384;BME280;63511;49.346;8.798;2022-11-06T16:00:17;99790.13;;;12.50;75.41
61384;BME280;63511;49.346;8.798;2022-11-06T16:03:16;99786.66;;;12.48;75.69
61384;BME280;63511;49.346;8.798;2022-11-06T16:05:42;99794.41;;;12.35;75.88
61384;BME280;63511;49.346;8.798;2022-11-06T16:08:13;99788.97;;;12.27;74.74
61384;BME280;63511;49.346;8.798;2022-11-06T16:10:42;99790.38;;;12.39;74.93
61384;BME280;63511;49.346;8.798;2022-11-06T16:13:13;99800.13;;;12.47;74.35
61384;BME280;63511;49.346;8.798;2022-11-06T16:15:46;99801.56;;;12.42;74.81
61384;BME280;63511;49.346;8.798;2022-11-06T16:18:37;99799.06;;;12.44;75.06